Pagrindinis puslapis
METAR-TAF:

METAR-TAF

Oro uostai :

Japanese Ground Self Defense Force

Tokachi-Obihiro, Japonija

platuma: 42-54N, ilguma: 143-10E, Aukštis: 84 m

Dabartinis oras

Ataskaita buvo paskelbta 8 valandos ir 31 minutes, ne 02:39 UTC
Vėjas 9 kt iš Šiaurės Vakarų su gūsio iki 19 kt
Temperatūra -4°C
Drėgmė 42%
Slėgis 1024 hPa
Matomumas 10 km arba daugiau
Mažai debesys ne aukštis 4000 ft

METAR: RJCT 260239Z 31009G19KT 9999 FEW040 M04/M15 Q1024 RMK 1CU040 A3025

Laikas: 20:10 (11:10 UTC)


TAF: trūkstamas

Orai ataskaitas ir orų prognozės (METAR, TAF).

turimą stotys yra geltonos ir raudonos taškus žemėlapyje.

Perkelti pele per norėdami pamatyti stoties vardą.

Tada spustelėkite, norėdami matyti oro stebėjimo ir prognozės.

Norėdami pakeisti žemėlapį: spustelėkite ant žalios mygtukų su juodo kryžiaus žemyn,; žalią mygtuką su brūkšneliu, jei norite nutolinti; arba žalių rodyklių gretimoms žemėlapius.


METAR-TAF: